Latest Weather Observations for Bega

IDN60801

Issued at 8:02 pm EST Friday 29 May 2015 (issued every 30 minutes, with the page automatically refreshed every 10 minutes)

About weather observations | Map of weather stations | Latest weather observations for NSW | Other Formats
Station Details ID: 069139 Name: BEGA AWS Lat: -36.67 Lon: 149.82 Height: 41.0 m
Data from the previous 72 hours. | See also: Recent months at Bega
Date/Time
EST
Temp
°C
App
Temp
°C
Dew
Point
Rel
Hum
%
Delta-T
°C
Wind Press
QNH
hPa
Press
MSL
hPa
Rain
since 9 am
mm
Dir
 
Spd
km/h
Gust
km/h
Spd
kts
Gust
kts
29/08:00pm 11.0 10.1 7.9 81 1.5 NNE 2 6 1 3 - - 0.0
29/07:30pm 11.9 10.6 7.6 75 2.1 NE 4 7 2 4 - - 0.0
29/07:00pm 12.8 11.1 7.5 70 2.6 NNE 6 7 3 4 - - 0.0
29/06:30pm 13.7 12.0 7.5 66 3.0 NE 6 7 3 4 - - 0.0
29/06:00pm 13.8 12.0 7.8 67 3.0 NE 7 9 4 5 - - 0.0
29/05:30pm 13.9 12.2 8.3 69 2.8 NE 7 11 4 6 - - 0.0
29/05:00pm 14.1 12.3 8.1 67 3.0 NE 7 9 4 5 - - 0.0
29/04:30pm 14.4 11.9 8.4 67 3.0 ENE 11 15 6 8 - - 0.0
29/04:00pm 14.9 12.8 8.4 65 3.3 E 9 15 5 8 - - 0.0
29/03:30pm 15.3 12.1 8.3 63 3.5 ESE 15 20 8 11 - - 0.0
29/03:00pm 15.8 13.6 9.2 65 3.4 ESE 11 17 6 9 - - 0.0
29/02:30pm 16.2 13.6 9.2 63 3.6 ESE 13 20 7 11 - - 0.0
29/02:00pm 16.9 13.6 9.6 62 3.8 ESE 17 20 9 11 - - 0.0
29/01:30pm 17.5 14.7 10.1 62 3.9 ESE 15 20 8 11 - - 0.0
29/01:00pm 17.2 14.5 10.3 64 3.7 ESE 15 20 8 11 - - 0.0
29/12:30pm 17.4 15.1 10.3 63 3.8 E 13 17 7 9 - - 0.0
29/12:00pm 16.6 14.8 10.7 68 3.2 ENE 11 17 6 9 - - 0.0
29/11:30am 15.8 14.7 9.9 68 3.1 ENE 6 9 3 5 - - 0.0
29/11:00am 14.2 14.2 11.2 82 1.6 ENE 2 7 1 4 - - 0.0
29/10:30am 11.8 10.9 9.4 85 1.2 E 4 7 2 4 - - 0.0
29/10:00am 11.0 9.7 9.3 89 0.9 ENE 6 9 3 5 - - 0.0
29/09:30am 9.4 9.0 8.3 93 0.5 CALM 0 0 0 0 - - 0.0
29/09:00am 8.6 8.3 8.5 99 0.0 CALM 0 0 0 0 - - 0.0
29/08:30am 7.2 5.2 6.9 98 0.1 ENE 7 11 4 6 - - 0.0
29/08:00am 6.4 4.2 6.0 97 0.2 SSW 7 11 4 6 - - 0.0
29/07:30am 6.9 5.0 6.8 99 0.0 W 6 13 3 7 - - 0.0
29/07:00am 7.0 5.1 6.7 98 0.1 SSW 6 13 3 7 - - 0.0
29/06:30am 7.4 5.9 6.8 96 0.3 NW 4 6 2 3 - - 0.0
29/06:00am 8.1 6.8 7.5 96 0.3 SW 4 9 2 5 - - 0.0
29/05:30am 7.7 5.0 7.4 98 0.1 SSW 11 13 6 7 - - 0.0
29/05:00am 8.3 7.0 7.7 96 0.3 SSW 4 6 2 3 - - 0.0
29/04:30am 7.9 5.9 7.0 94 0.4 S 7 9 4 5 - - 0.0
29/04:00am 10.0 8.4 8.6 91 0.7 NW 7 9 4 5 - - 0.0
29/03:30am 9.8 9.4 8.4 91 0.7 CALM 0 6 0 3 - - 0.0
29/03:00am 10.2 9.9 8.8 91 0.7 CALM 0 6 0 3 - - 0.0
29/02:30am 10.3 8.7 8.9 91 0.7 S 7 11 4 6 - - 0.0
29/02:00am 10.2 8.3 9.1 93 0.5 SSW 9 13 5 7 - - 0.0
29/01:30am 10.3 9.0 9.1 92 0.6 NNW 6 9 3 5 - - 0.0
29/01:00am 10.2 9.2 9.0 92 0.6 SSE 4 7 2 4 - - 0.0
29/12:30am 10.2 8.9 9.1 93 0.5 SSW 6 7 3 4 - - 0.0
29/12:00am 10.4 10.2 9.2 92 0.6 CALM 0 0 0 0 - - 0.0
 
Date/Time
EST
Temp
°C
App
Temp
°C
Dew
Point
Rel
Hum
%
Delta-T
°C
Wind Press
QNH
hPa
Press
MSL
hPa
Rain
since 9 am
mm
Dir
 
Spd
km/h
Gust
km/h
Spd
kts
Gust
kts
28/11:30pm 10.1 8.5 8.9 92 0.6 SSW 7 11 4 6 - - 0.0
28/11:00pm 10.5 10.3 9.1 91 0.7 CALM 0 0 0 0 - - 0.0
28/10:30pm 10.6 8.8 9.4 92 0.6 SSW 9 11 5 6 - - 0.0
28/10:00pm 10.7 9.9 9.8 94 0.5 WNW 4 7 2 4 - - 0.0
28/09:30pm 10.0 8.7 9.1 94 0.4 SSE 6 9 3 5 - - 0.0
28/09:00pm 12.0 11.0 10.2 89 0.9 WNW 6 7 3 4 - - 0.0
28/08:30pm 11.5 10.6 10.6 94 0.5 SSW 6 7 3 4 - - 0.0
28/08:00pm 11.4 11.5 10.0 91 0.7 CALM 0 0 0 0 - - 0.0
28/07:30pm 11.2 10.5 9.9 92 0.7 SSW 4 9 2 5 - - 0.0
28/07:00pm 12.1 11.0 9.8 86 1.2 NW 6 11 3 6 - - 0.0
28/06:30pm 12.6 12.7 10.0 84 1.3 CALM 0 0 0 0 - - 0.0
28/06:00pm 14.3 14.7 11.3 82 1.6 CALM 0 0 0 0 - - 0.0
28/05:30pm 16.1 16.1 11.3 73 2.6 N 2 9 1 5 - - 0.0
28/05:00pm 16.9 17.4 11.6 71 2.9 CALM 0 0 0 0 - - 0.0
28/04:30pm 18.2 17.5 11.5 65 3.7 NE 6 7 3 4 - - 0.0
28/04:00pm 19.4 18.5 11.4 60 4.4 NE 7 11 4 6 - - 0.0
28/03:30pm 19.8 17.8 11.6 59 4.5 NE 13 17 7 9 - - 0.0
28/03:00pm 21.0 18.4 10.8 52 5.6 ENE 15 19 8 10 - - 0.0
28/02:30pm 22.1 20.0 9.9 46 6.6 NNE 11 15 6 8 - - 0.0
28/02:00pm 21.5 20.3 10.3 49 6.1 NE 7 11 4 6 - - 0.0
28/01:30pm 21.8 20.7 10.6 49 6.1 NE 7 9 4 5 - - 0.0
28/01:00pm 20.3 19.9 12.3 60 4.5 NE 6 9 3 5 - - 0.0
28/12:30pm 19.9 19.9 12.4 62 4.2 NE 4 7 2 4 - - 0.0
28/12:00pm 17.1 17.4 10.9 67 3.3 CALM 0 0 0 0 - - 0.0
28/11:30am 15.1 14.5 10.3 73 2.5 SE 4 7 2 4 - - 0.0
28/11:00am 13.4 13.5 10.0 80 1.8 CALM 0 6 0 3 - - 0.0
28/10:30am 10.5 10.4 9.6 94 0.5 CALM 0 0 0 0 - - 0.0
28/10:00am 8.7 8.4 8.6 99 0.0 CALM 0 0 0 0 - - 0.0
28/09:30am 7.3 5.3 7.2 99 0.0 S 7 7 4 4 - - 0.0
28/09:00am 6.6 5.8 6.5 99 0.0 CALM 0 0 0 0 - - 0.2
28/08:30am 6.9 5.8 6.8 99 0.0 NE 2 7 1 4 - - 0.2
28/08:00am 5.0 3.1 4.9 99 0.0 N 4 7 2 4 - - 0.2
28/07:30am 4.1 2.4 4.0 99 0.0 WSW 2 9 1 5 - - 0.2
28/07:00am 3.7 1.5 3.6 99 0.0 S 4 7 2 4 - - 0.2
28/06:30am 3.9 2.5 3.8 99 0.0 CALM 0 0 0 0 - - 0.2
28/06:00am 4.7 3.5 4.6 99 0.0 CALM 0 0 0 0 - - 0.2
28/05:30am 4.3 2.6 4.2 99 0.0 WSW 2 7 1 4 - - 0.2
28/05:00am 5.3 4.2 5.2 99 0.0 CALM 0 0 0 0 - - 0.2
28/04:30am 5.1 4.0 5.0 99 0.0 CALM 0 0 0 0 - - 0.2
28/04:00am 5.2 3.3 5.1 99 0.0 S 4 7 2 4 - - 0.2
28/03:30am 6.4 5.2 6.3 99 0.0 SE 2 7 1 4 - - 0.2
28/03:00am 6.5 4.9 6.4 99 0.0 WSW 4 9 2 5 - - 0.2
28/02:30am 6.4 4.4 6.3 99 0.0 SE 6 7 3 4 - - 0.2
28/02:00am 7.9 6.6 7.8 99 0.0 WSW 4 9 2 5 - - 0.2
28/01:30am 8.5 8.1 8.4 99 0.0 CALM 0 0 0 0 - - 0.2
28/01:00am 8.5 7.7 8.2 98 0.1 SSW 2 6 1 3 - - 0.2
28/12:30am 8.9 8.6 8.6 98 0.1 CALM 0 0 0 0 - - 0.2
28/12:00am 9.0 8.3 8.7 98 0.1 SSW 2 6 1 3 - - 0.2
 
Date/Time
EST
Temp
°C
App
Temp
°C
Dew
Point
Rel
Hum
%
Delta-T
°C
Wind Press
QNH
hPa
Press
MSL
hPa
Rain
since 9 am
mm
Dir
 
Spd
km/h
Gust
km/h
Spd
kts
Gust
kts
27/11:30pm 8.9 7.7 8.1 95 0.4 NNW 4 9 2 5 - - 0.2
27/11:00pm 9.5 8.9 8.9 96 0.3 N 2 6 1 3 - - 0.2
27/10:30pm 9.7 9.1 9.1 96 0.3 NNE 2 7 1 4 - - 0.2
27/10:00pm 9.9 8.6 9.1 95 0.4 SW 6 9 3 5 - - 0.2
27/09:30pm 10.9 10.2 10.0 94 0.5 WNW 4 7 2 4 - - 0.2
27/09:00pm 10.2 10.1 9.3 94 0.4 CALM 0 0 0 0 - - 0.2
27/08:30pm 9.9 9.6 8.8 93 0.5 CALM 0 0 0 0 - - 0.2
27/08:00pm 10.9 11.0 10.0 94 0.5 CALM 0 0 0 0 - - 0.2
27/07:30pm 11.4 11.4 9.7 89 0.9 CALM 0 0 0 0 - - 0.2
27/07:00pm 11.8 10.8 10.2 90 0.8 SSW 6 7 3 4 - - 0.2
27/06:30pm 12.6 12.7 10.3 86 1.2 CALM 0 0 0 0 - - 0.2
27/06:00pm 14.6 14.8 10.4 76 2.2 CALM 0 6 0 3 - - 0.2
27/05:30pm 15.0 14.1 10.6 75 2.3 W 6 7 3 4 - - 0.2
27/05:00pm 15.4 15.7 10.8 74 2.4 CALM 0 0 0 0 - - 0.2
27/04:30pm 16.2 16.4 10.7 70 2.9 CALM 0 0 0 0 - - 0.2
27/04:00pm 16.8 16.0 11.1 69 3.1 S 6 9 3 5 - - 0.2
27/03:30pm 17.7 18.2 11.7 68 3.3 CALM 0 0 0 0 - - 0.2
27/03:00pm 17.5 16.6 10.6 64 3.7 ESE 6 7 3 4 - - 0.2
27/02:30pm 18.0 17.6 8.3 53 5.0 CALM 0 0 0 0 - - 0.2
27/02:00pm 18.1 17.7 8.4 53 5.0 CALM 0 0 0 0 - - 0.2
27/01:30pm 18.1 17.9 8.9 55 4.8 CALM 0 0 0 0 - - 0.2
27/01:00pm 18.5 17.0 9.0 54 5.0 ENE 7 9 4 5 - - 0.2
27/12:30pm 17.6 16.1 8.5 55 4.7 ENE 6 9 3 5 - - 0.2
27/12:00pm 16.8 16.5 10.0 64 3.6 SE 2 7 1 4 - - 0.2
27/11:30am 16.2 16.1 9.6 65 3.4 CALM 0 6 0 3 - - 0.2
27/11:00am 14.5 13.5 8.7 68 2.9 E 4 9 2 5 - - 0.2
27/10:30am 12.8 12.0 8.3 74 2.2 SE 2 6 1 3 - - 0.0
27/10:00am 11.0 9.7 7.7 80 1.6 SSE 4 7 2 4 - - 0.0
27/09:30am 9.4 8.8 7.2 86 1.0 CALM 0 0 0 0 - - 0.0
27/09:00am 8.0 7.5 7.7 98 0.1 CALM 0 0 0 0 - - 0.0
27/08:30am 7.0 6.3 6.9 99 0.0 CALM 0 0 0 0 - - 0.0
27/08:00am 6.3 5.4 6.2 99 0.0 CALM 0 0 0 0 - - 0.0
27/07:30am 5.9 4.6 5.8 99 0.0 SSW 2 6 1 3 - - 0.0
27/07:00am 6.2 5.3 5.9 98 0.1 CALM 0 0 0 0 - - 0.0
27/06:30am 6.5 4.5 6.2 98 0.1 NW 6 7 3 4 - - 0.0
27/06:00am 6.1 3.8 5.8 98 0.1 N 7 7 4 4 - - 0.0
27/05:30am 6.0 5.0 5.6 97 0.2 CALM 0 0 0 0 - - 0.0
27/05:00am 6.3 5.4 5.9 97 0.2 CALM 0 0 0 0 - - 0.0
27/04:30am 6.6 5.0 6.3 98 0.1 W 4 7 2 4 - - 0.0
27/04:00am 6.2 4.9 5.8 97 0.2 NE 2 6 1 3 - - 0.0
27/03:30am 6.5 5.6 5.9 96 0.3 CALM 0 4 0 2 - - 0.0
27/03:00am 6.3 5.3 5.7 96 0.3 CALM 0 0 0 0 - - 0.0
27/02:30am 6.3 5.3 5.7 96 0.3 CALM 0 0 0 0 - - 0.0
27/02:00am 6.3 5.3 5.6 95 0.3 CALM 0 0 0 0 - - 0.0
27/01:30am 6.5 5.6 5.9 96 0.3 CALM 0 0 0 0 - - 0.0
27/01:00am 6.2 4.0 5.5 95 0.3 S 6 7 3 4 - - 0.0
27/12:30am 6.5 5.2 5.9 96 0.3 W 2 7 1 4 - - 0.0
27/12:00am 6.0 4.5 5.1 94 0.4 ESE 2 7 1 4 - - 0.0
 
Date/Time
EST
Temp
°C
App
Temp
°C
Dew
Point
Rel
Hum
%
Delta-T
°C
Wind Press
QNH
hPa
Press
MSL
hPa
Rain
since 9 am
mm
Dir
 
Spd
km/h
Gust
km/h
Spd
kts
Gust
kts
26/11:30pm 6.3 5.3 5.6 95 0.3 CALM 0 0 0 0 - - 0.0
26/11:00pm 6.9 6.0 6.2 95 0.3 CALM 0 4 0 2 - - 0.0
26/10:30pm 6.2 5.2 5.5 95 0.3 CALM 0 0 0 0 - - 0.0
26/10:00pm 6.2 5.2 5.5 95 0.3 CALM 0 0 0 0 - - 0.0
26/09:30pm 6.7 5.8 6.0 95 0.3 CALM 0 0 0 0 - - 0.0
26/09:00pm 6.3 5.3 5.4 94 0.4 CALM 0 0 0 0 - - 0.0
26/08:30pm 6.8 4.7 5.7 93 0.5 NNW 6 7 3 4 - - 0.0

Other Formats:

Comma delimited format used in spreadsheet applications
http://www.bom.gov.au/fwo/IDN60801/IDN60801.95931.axf

JavaScript Object Notation format (JSON) in row-major order
http://www.bom.gov.au/fwo/IDN60801/IDN60801.95931.json